Kilcolgan, Ireland
Current Conditions -  °F | °C
As of 7:30 AM on Saturday 29 Nov 2014 (Local Time) from EINN Reporting Station
Haze Haze  
Wind Chill:   Ceiling: 1600
Heat Index:   Visibility: 1.2mi
Dew Point:   Wind: 2mph
Humidity: 100%   Direction: NA
Pressure: 29.77"   Gusts: NA
Location:  53.2°N, 8.87°W
Report Text: EINN 290730Z VRB02KT 2000 R24/1300U R06/0900D BR FEW005 BKN016 05/05 Q1008 REFG TEMPO 0400 BKN002
Loading
Personal Weather Stations






























Interactive Weather Map New forecast layout! Learn more

10-Day Weather Forecast

Advertisements
Track Severe Weather on mobile